createdAt,value
2019-03-09T00:00:56.362Z,2.47
2019-03-09T00:03:25.168Z,3.37
2019-03-09T00:05:53.649Z,3.00
2019-03-09T00:08:22.078Z,3.17
2019-03-09T00:10:50.766Z,2.87
2019-03-09T00:13:19.487Z,3.00
2019-03-09T00:15:48.203Z,2.43
2019-03-09T00:18:16.655Z,2.57
2019-03-09T00:20:45.082Z,2.27
2019-03-09T00:23:20.803Z,2.37
2019-03-09T00:26:08.754Z,2.20
2019-03-09T00:28:55.082Z,1.90
2019-03-09T00:31:37.022Z,2.40
2019-03-09T00:34:05.442Z,2.00
2019-03-09T00:36:33.887Z,2.30
2019-03-09T00:39:02.662Z,2.47
2019-03-09T00:41:31.390Z,1.90
2019-03-09T00:44:00.099Z,2.80
2019-03-09T00:46:28.859Z,2.60
2019-03-09T00:48:57.342Z,2.50
2019-03-09T00:51:25.863Z,2.20
2019-03-09T00:53:54.546Z,2.77
2019-03-09T00:56:22.986Z,3.00
2019-03-09T00:58:51.478Z,3.03
2019-03-09T01:01:19.987Z,2.83
2019-03-09T01:03:48.707Z,3.33
2019-03-09T01:06:17.215Z,3.60
2019-03-09T01:08:45.651Z,2.90
2019-03-09T01:11:14.106Z,2.93
2019-03-09T01:13:42.941Z,3.07
2019-03-09T01:16:11.748Z,2.73
2019-03-09T01:18:40.442Z,3.00
2019-03-09T01:21:08.875Z,2.90
2019-03-09T01:23:37.583Z,3.20
2019-03-09T01:26:06.051Z,2.90
2019-03-09T01:28:34.526Z,3.33
2019-03-09T01:31:03.117Z,3.20
2019-03-09T01:33:31.534Z,3.23
2019-03-09T01:35:59.983Z,2.90
2019-03-09T01:38:28.426Z,3.40
2019-03-09T01:40:56.922Z,3.57
2019-03-09T01:43:25.659Z,3.10
2019-03-09T01:45:54.091Z,3.33
2019-03-09T01:48:22.835Z,3.50
2019-03-09T01:50:51.277Z,3.67
2019-03-09T01:53:20.000Z,3.90
2019-03-09T01:55:48.535Z,4.17
2019-03-09T01:58:16.982Z,3.57
2019-03-09T02:00:45.730Z,3.77
2019-03-09T02:03:14.151Z,4.00
2019-03-09T02:05:42.895Z,3.80
2019-03-09T02:08:11.587Z,4.23
2019-03-09T02:10:40.022Z,4.20
2019-03-09T02:13:08.461Z,4.90
2019-03-09T02:15:37.183Z,5.30
2019-03-09T02:18:05.683Z,5.30
2019-03-09T02:20:34.130Z,5.90
2019-03-09T02:23:02.850Z,5.10
2019-03-09T02:25:31.355Z,5.50
2019-03-09T02:27:59.784Z,5.57
2019-03-09T02:30:28.234Z,5.53
2019-03-09T02:32:56.689Z,5.63
2019-03-09T02:35:25.167Z,5.50
2019-03-09T02:37:53.634Z,6.23
2019-03-09T02:40:24.001Z,7.03
2019-03-09T02:42:52.444Z,6.40
2019-03-09T02:45:24.309Z,6.60
2019-03-09T02:47:52.830Z,7.27
2019-03-09T02:50:21.655Z,7.40
2019-03-09T02:52:50.095Z,7.87
2019-03-09T02:55:18.591Z,7.90
2019-03-09T02:57:47.027Z,7.20
2019-03-09T03:00:18.518Z,6.80
2019-03-09T03:02:48.774Z,6.87
2019-03-09T03:05:17.270Z,7.03
2019-03-09T03:07:46.019Z,7.27
2019-03-09T03:10:14.518Z,7.70
2019-03-09T03:12:42.955Z,7.57
2019-03-09T03:15:14.455Z,7.93
2019-03-09T03:17:42.903Z,7.60
2019-03-09T03:20:11.343Z,8.43
2019-03-09T03:22:40.062Z,8.10
2019-03-09T03:25:08.633Z,8.20
2019-03-09T03:27:37.069Z,7.97
2019-03-09T03:30:07.324Z,7.13
2019-03-09T03:32:36.250Z,8.17
2019-03-09T03:35:06.974Z,8.50
2019-03-09T03:37:35.426Z,8.30
2019-03-09T03:40:08.911Z,8.70
2019-03-09T03:42:37.472Z,9.50
2019-03-09T03:45:08.393Z,8.03
2019-03-09T03:47:36.837Z,8.90
2019-03-09T03:50:06.025Z,9.40
2019-03-09T03:52:34.523Z,8.70
2019-03-09T03:55:02.960Z,7.40
2019-03-09T03:57:31.390Z,8.10
2019-03-09T04:00:00.354Z,8.23
2019-03-09T04:02:28.920Z,7.97
2019-03-09T04:04:57.352Z,7.70
2019-03-09T04:07:25.981Z,8.33
2019-03-09T04:09:54.759Z,7.70
2019-03-09T04:12:23.458Z,7.37
2019-03-09T04:14:52.138Z,6.30
2019-03-09T04:17:20.578Z,6.20
2019-03-09T04:19:48.993Z,6.30
2019-03-09T04:22:17.424Z,5.67
2019-03-09T04:24:46.179Z,4.60
2019-03-09T04:27:14.694Z,4.63
2019-03-09T04:29:43.118Z,4.23
2019-03-09T04:32:11.568Z,4.53
2019-03-09T04:34:39.987Z,3.30
2019-03-09T04:37:08.430Z,3.10
2019-03-09T04:39:36.914Z,3.00
2019-03-09T04:42:05.362Z,3.30
2019-03-09T04:44:34.039Z,4.47
2019-03-09T04:47:02.486Z,3.20
2019-03-09T04:49:30.931Z,3.80
2019-03-09T04:51:59.366Z,3.57
2019-03-09T04:54:27.787Z,4.80
2019-03-09T04:56:56.206Z,4.77
2019-03-09T04:59:24.955Z,5.40
2019-03-09T05:01:53.378Z,5.13
2019-03-09T05:04:27.695Z,4.57
2019-03-09T05:06:56.123Z,5.10
2019-03-09T05:09:27.635Z,5.60
2019-03-09T05:11:56.058Z,5.90
2019-03-09T05:14:24.494Z,5.17
2019-03-09T05:16:52.938Z,6.23
2019-03-09T05:19:21.366Z,7.03
2019-03-09T05:21:49.788Z,6.27
2019-03-09T05:24:18.506Z,6.17
2019-03-09T05:26:47.181Z,5.67
2019-03-09T05:29:15.882Z,6.47
2019-03-09T05:31:44.599Z,6.10
2019-03-09T05:34:13.039Z,5.80
2019-03-09T05:36:41.466Z,6.90
2019-03-09T05:39:09.898Z,6.20
2019-03-09T05:41:38.594Z,7.07
2019-03-09T05:44:07.051Z,6.70
2019-03-09T05:46:35.533Z,6.10
2019-03-09T05:49:03.971Z,6.47
2019-03-09T05:51:32.388Z,5.90
2019-03-09T05:54:00.831Z,6.50
2019-03-09T05:56:29.797Z,5.73
2019-03-09T05:58:58.237Z,6.60
2019-03-09T06:01:26.658Z,6.60
2019-03-09T06:03:55.104Z,6.23
2019-03-09T06:06:23.811Z,7.00
2019-03-09T06:08:52.268Z,6.53
2019-03-09T06:11:20.740Z,6.70
2019-03-09T06:13:49.502Z,6.30
2019-03-09T06:16:17.946Z,6.50
2019-03-09T06:18:46.380Z,6.43
2019-03-09T06:21:14.808Z,6.90
2019-03-09T06:23:43.251Z,5.60
2019-03-09T06:26:11.967Z,5.70
2019-03-09T06:28:40.486Z,6.10
2019-03-09T06:31:09.183Z,6.30
2019-03-09T06:33:37.632Z,6.23
2019-03-09T06:36:11.885Z,6.70
2019-03-09T06:38:51.369Z,6.10
2019-03-09T06:41:34.031Z,6.37
2019-03-09T06:44:02.478Z,6.60
2019-03-09T06:46:30.994Z,7.73
2019-03-09T06:48:59.677Z,6.47
2019-03-09T06:51:28.102Z,7.07
2019-03-09T06:53:56.543Z,7.30
2019-03-09T06:56:24.974Z,7.83
2019-03-09T06:58:53.427Z,6.93
2019-03-09T07:01:24.522Z,7.20
2019-03-09T07:03:53.336Z,7.40
2019-03-09T07:06:22.020Z,8.70
2019-03-09T07:08:50.818Z,6.80
2019-03-09T07:11:19.243Z,7.47
2019-03-09T07:13:52.805Z,7.40
2019-03-09T07:16:17.835Z,7.40
2019-03-09T07:18:46.283Z,7.43
2019-03-09T07:21:14.966Z,7.23
2019-03-09T07:23:43.414Z,7.77
2019-03-09T07:26:11.903Z,7.03
2019-03-09T07:28:40.369Z,7.20
2019-03-09T07:31:08.858Z,6.97
2019-03-09T07:33:37.375Z,7.50
2019-03-09T07:36:05.874Z,6.97
2019-03-09T07:38:34.414Z,7.20
2019-03-09T07:41:02.891Z,6.93
2019-03-09T07:43:31.378Z,6.67
2019-03-09T07:45:59.802Z,6.83
2019-03-09T07:48:28.235Z,7.27
2019-03-09T07:50:56.676Z,7.67
2019-03-09T07:53:25.106Z,7.67
2019-03-09T07:55:53.563Z,7.17
2019-03-09T07:58:22.242Z,7.73
2019-03-09T08:00:51.020Z,7.90
2019-03-09T08:03:19.760Z,8.00
2019-03-09T08:05:48.220Z,8.37
2019-03-09T08:08:16.650Z,9.90
2019-03-09T08:10:45.109Z,9.63
2019-03-09T08:13:13.864Z,9.70
2019-03-09T08:15:42.310Z,10.50
2019-03-09T08:18:11.059Z,10.73
2019-03-09T08:20:39.503Z,9.87
2019-03-09T08:23:07.937Z,9.80
2019-03-09T08:25:36.379Z,9.57
2019-03-09T08:28:08.462Z,9.27
2019-03-09T08:30:54.605Z,10.30
2019-03-09T08:33:51.568Z,8.20
2019-03-09T08:36:20.042Z,7.90
2019-03-09T08:38:48.549Z,8.40
2019-03-09T08:41:17.053Z,8.50
2019-03-09T08:43:45.589Z,7.53
2019-03-09T08:46:14.125Z,7.80
2019-03-09T08:48:42.639Z,6.30
2019-03-09T08:51:11.237Z,6.97
2019-03-09T08:53:39.694Z,6.37
2019-03-09T08:56:08.242Z,7.43
2019-03-09T08:58:36.960Z,7.80
2019-03-09T09:01:05.853Z,8.47
2019-03-09T09:03:34.339Z,8.47
2019-03-09T09:06:02.808Z,8.33
2019-03-09T09:08:31.501Z,9.10
2019-03-09T09:11:00.192Z,9.67
2019-03-09T09:13:28.702Z,10.00
2019-03-09T09:15:57.304Z,9.77
2019-03-09T09:18:25.799Z,9.47
2019-03-09T09:20:54.535Z,10.13
2019-03-09T09:23:22.979Z,9.87
2019-03-09T09:25:51.428Z,9.00
2019-03-09T09:28:19.844Z,9.60
2019-03-09T09:30:48.292Z,10.07
2019-03-09T09:33:17.007Z,10.10
2019-03-09T09:35:45.561Z,8.70
2019-03-09T09:38:14.314Z,9.23
2019-03-09T09:40:43.190Z,8.87
2019-03-09T09:43:11.904Z,9.30
2019-03-09T09:45:40.367Z,9.23
2019-03-09T09:48:08.800Z,8.83
2019-03-09T09:50:37.259Z,8.40
2019-03-09T09:53:05.701Z,6.77
2019-03-09T09:55:34.139Z,9.03
2019-03-09T09:58:02.580Z,7.80
2019-03-09T10:00:31.287Z,8.00
2019-03-09T10:02:59.731Z,7.70
2019-03-09T10:05:28.239Z,8.18
2019-03-09T10:07:56.682Z,8.73
2019-03-09T10:10:25.391Z,7.20
2019-03-09T10:12:55.951Z,7.70
2019-03-09T10:15:26.762Z,6.93
2019-03-09T10:17:55.202Z,7.33
2019-03-09T10:20:24.111Z,6.70
2019-03-09T10:23:03.052Z,6.23
2019-03-09T10:25:23.034Z,7.03
2019-03-09T10:27:51.473Z,7.27
2019-03-09T10:30:26.139Z,8.73
2019-03-09T10:32:54.582Z,7.90
2019-03-09T10:35:23.102Z,6.60
2019-03-09T10:37:51.591Z,6.17
2019-03-09T10:40:20.195Z,5.30
2019-03-09T10:42:48.979Z,5.37
2019-03-09T10:45:18.727Z,4.70
2019-03-09T10:47:47.149Z,4.23
2019-03-09T10:50:19.431Z,4.90
2019-03-09T10:52:47.997Z,4.80
2019-03-09T10:55:28.107Z,5.10
2019-03-09T10:57:56.547Z,4.80
2019-03-09T11:00:27.894Z,4.80
2019-03-09T11:02:56.403Z,4.70
2019-03-09T11:05:24.895Z,4.80
2019-03-09T11:07:53.419Z,4.70
2019-03-09T11:10:21.865Z,5.00
2019-03-09T11:12:50.314Z,4.97
2019-03-09T11:15:18.802Z,4.93
2019-03-09T11:17:47.598Z,5.13
2019-03-09T11:20:21.323Z,4.87
2019-03-09T11:22:49.860Z,5.00
2019-03-09T11:25:18.363Z,5.00
2019-03-09T11:27:47.086Z,5.20
2019-03-09T11:30:28.602Z,4.20
2019-03-09T11:32:57.302Z,4.57
2019-03-09T11:35:25.738Z,4.03
2019-03-09T11:37:54.217Z,4.30
2019-03-09T11:40:22.631Z,4.53
2019-03-09T11:42:51.097Z,4.10
2019-03-09T11:45:20.151Z,3.70
2019-03-09T11:47:48.896Z,4.10
2019-03-09T11:50:17.562Z,4.13
2019-03-09T11:52:46.683Z,4.20
2019-03-09T11:55:16.980Z,4.30
2019-03-09T11:57:45.705Z,3.57
2019-03-09T12:00:20.215Z,4.43
2019-03-09T12:02:48.993Z,3.87
2019-03-09T12:05:17.488Z,3.00
2019-03-09T12:07:45.931Z,4.40
2019-03-09T12:10:14.510Z,3.50
2019-03-09T12:12:42.954Z,3.77
2019-03-09T12:15:13.631Z,3.20
2019-03-09T12:17:42.353Z,3.47
2019-03-09T12:20:12.370Z,3.40
2019-03-09T12:22:40.840Z,2.73
2019-03-09T12:25:11.023Z,2.80
2019-03-09T12:27:39.462Z,3.13
2019-03-09T12:30:11.195Z,3.80
2019-03-09T12:32:39.656Z,3.10
2019-03-09T12:35:09.014Z,2.93
2019-03-09T12:37:37.555Z,3.33
2019-03-09T12:40:11.646Z,3.23
2019-03-09T12:42:40.389Z,3.63
2019-03-09T12:45:10.699Z,3.37
2019-03-09T12:47:39.206Z,3.30
2019-03-09T12:50:13.297Z,3.10
2019-03-09T12:52:41.839Z,3.60
2019-03-09T12:55:10.355Z,2.93
2019-03-09T12:57:39.155Z,2.70
2019-03-09T13:00:13.873Z,3.13
2019-03-09T13:02:42.619Z,2.77
2019-03-09T13:05:11.394Z,2.60
2019-03-09T13:07:40.194Z,2.23
2019-03-09T13:10:09.619Z,2.60
2019-03-09T13:12:38.306Z,2.90
2019-03-09T13:15:08.364Z,2.10
2019-03-09T13:17:36.897Z,2.80
2019-03-09T13:20:08.222Z,2.77
2019-03-09T13:22:36.955Z,2.70
2019-03-09T13:25:08.370Z,2.50
2019-03-09T13:27:36.874Z,3.63
2019-03-09T13:30:13.731Z,2.97
2019-03-09T13:32:42.189Z,2.90
2019-03-09T13:35:10.693Z,2.60
2019-03-09T13:37:39.136Z,4.23
2019-03-09T13:40:10.459Z,3.43
2019-03-09T13:42:38.899Z,3.50
2019-03-09T13:45:12.480Z,3.00
2019-03-09T13:47:40.990Z,2.70
2019-03-09T13:50:11.364Z,2.07
2019-03-09T13:52:39.806Z,2.37
2019-03-09T13:55:09.572Z,2.20
2019-03-09T13:57:38.348Z,2.27
2019-03-09T14:00:15.137Z,3.00
2019-03-09T14:02:43.716Z,3.53
2019-03-09T14:05:12.470Z,2.70
2019-03-09T14:07:41.187Z,3.10
2019-03-09T14:10:14.388Z,2.77
2019-03-09T14:12:43.171Z,2.43
2019-03-09T14:15:15.385Z,3.03
2019-03-09T14:17:43.814Z,3.40
2019-03-09T14:20:15.828Z,2.60
2019-03-09T14:22:44.357Z,4.00
2019-03-09T14:25:16.823Z,3.03
2019-03-09T14:27:45.270Z,2.13
2019-03-09T14:30:18.998Z,3.00
2019-03-09T14:32:47.911Z,2.70
2019-03-09T14:35:16.784Z,2.77
2019-03-09T14:37:45.254Z,2.40
2019-03-09T14:40:16.732Z,2.90
2019-03-09T14:42:45.242Z,3.00
2019-03-09T14:45:23.527Z,3.20
2019-03-09T14:47:51.971Z,3.40
2019-03-09T14:50:20.402Z,3.10
2019-03-09T14:52:49.097Z,3.97
2019-03-09T14:55:17.562Z,3.40
2019-03-09T14:57:45.982Z,3.90
2019-03-09T15:00:17.417Z,3.40
2019-03-09T15:02:45.834Z,2.70
2019-03-09T15:05:14.560Z,3.40
2019-03-09T15:07:43.257Z,3.60
2019-03-09T15:10:12.787Z,2.83
2019-03-09T15:12:41.218Z,3.33
2019-03-09T15:15:18.531Z,3.00
2019-03-09T15:17:47.214Z,3.27
2019-03-09T15:20:16.687Z,3.20
2019-03-09T15:22:45.279Z,3.90
2019-03-09T15:25:17.866Z,5.00
2019-03-09T15:27:46.369Z,4.37
2019-03-09T15:30:20.967Z,1.60
2019-03-09T15:32:49.647Z,1.47
2019-03-09T15:35:18.255Z,1.03
2019-03-09T15:37:46.958Z,1.10
2019-03-09T15:40:18.999Z,1.17
2019-03-09T15:42:47.561Z,1.30
2019-03-09T15:45:16.936Z,1.30
2019-03-09T15:47:45.706Z,1.40
2019-03-09T15:50:15.776Z,1.33
2019-03-09T15:52:44.271Z,1.77
2019-03-09T15:55:13.030Z,1.23
2019-03-09T15:57:41.860Z,1.40
2019-03-09T16:00:24.023Z,0.93
2019-03-09T16:02:52.845Z,1.10
2019-03-09T16:05:21.351Z,0.90
2019-03-09T16:07:49.778Z,1.00
2019-03-09T16:10:20.607Z,1.23
2019-03-09T16:12:49.126Z,1.40
2019-03-09T16:15:18.082Z,1.30
2019-03-09T16:17:46.584Z,1.00
2019-03-09T16:20:20.042Z,1.00
2019-03-09T16:22:48.546Z,1.30
2019-03-09T16:25:16.989Z,1.30
2019-03-09T16:27:45.409Z,2.00
2019-03-09T16:30:19.070Z,1.20
2019-03-09T16:32:47.492Z,1.50
2019-03-09T16:35:15.939Z,1.40
2019-03-09T16:37:45.399Z,1.20
2019-03-09T16:40:19.091Z,1.70
2019-03-09T16:42:47.847Z,1.40
2019-03-09T16:45:16.748Z,1.50
2019-03-09T16:47:45.158Z,1.93
2019-03-09T16:50:15.766Z,1.53
2019-03-09T16:52:44.262Z,1.10
2019-03-09T16:55:12.865Z,1.70
2019-03-09T16:57:41.386Z,1.70
2019-03-09T17:00:21.108Z,1.87
2019-03-09T17:02:49.569Z,1.70
2019-03-09T17:05:18.102Z,1.73
2019-03-09T17:07:46.895Z,2.53
2019-03-09T17:10:18.807Z,1.97
2019-03-09T17:12:46.639Z,2.37
2019-03-09T17:15:20.402Z,2.00
2019-03-09T17:17:48.889Z,1.80
2019-03-09T17:20:17.999Z,2.10
2019-03-09T17:22:46.515Z,1.93
2019-03-09T17:25:15.389Z,1.80
2019-03-09T17:27:43.880Z,2.23
2019-03-09T17:30:17.629Z,2.23
2019-03-09T17:32:46.145Z,2.10
2019-03-09T17:35:14.657Z,2.03
2019-03-09T17:37:43.164Z,2.13
2019-03-09T17:40:18.381Z,2.03
2019-03-09T17:42:47.115Z,2.80
2019-03-09T17:45:23.739Z,1.80
2019-03-09T17:47:52.226Z,2.73
2019-03-09T17:50:20.670Z,1.77
2019-03-09T17:52:49.394Z,2.80
2019-03-09T17:55:18.104Z,2.40
2019-03-09T17:57:46.524Z,2.10
2019-03-09T18:00:23.230Z,1.77
2019-03-09T18:02:51.668Z,1.57
2019-03-09T18:05:20.200Z,2.60
2019-03-09T18:07:48.667Z,1.53
2019-03-09T18:10:28.646Z,2.13
2019-03-09T18:12:57.071Z,2.50
2019-03-09T18:15:25.510Z,2.27
2019-03-09T18:17:54.199Z,1.93
2019-03-09T18:20:22.639Z,2.70
2019-03-09T18:22:51.365Z,2.10
2019-03-09T18:25:19.798Z,1.97
2019-03-09T18:27:48.263Z,1.83
2019-03-09T18:30:16.830Z,1.90
2019-03-09T18:32:45.287Z,2.60
2019-03-09T18:35:14.055Z,1.90
2019-03-09T18:37:42.723Z,2.27
2019-03-09T18:40:15.717Z,1.73
2019-03-09T18:42:44.134Z,2.30
2019-03-09T18:45:20.951Z,2.00
2019-03-09T18:47:49.442Z,1.90
2019-03-09T18:50:17.902Z,1.47
2019-03-09T18:52:46.667Z,1.77
2019-03-09T18:55:15.234Z,1.10
2019-03-09T18:57:43.682Z,2.43
2019-03-09T19:00:15.264Z,1.63
2019-03-09T19:02:43.831Z,1.80
2019-03-09T19:05:12.594Z,2.13
2019-03-09T19:07:41.335Z,2.33
2019-03-09T19:10:12.576Z,2.07
2019-03-09T19:12:41.011Z,2.40
2019-03-09T19:15:14.671Z,2.80
2019-03-09T19:17:43.345Z,2.73
2019-03-09T19:20:14.350Z,2.20
2019-03-09T19:22:42.923Z,2.47
2019-03-09T19:25:13.033Z,2.63
2019-03-09T19:27:41.745Z,3.80
2019-03-09T19:30:13.114Z,4.10
2019-03-09T19:32:41.602Z,3.87
2019-03-09T19:35:10.311Z,6.10
2019-03-09T19:37:38.800Z,2.47
2019-03-09T19:40:10.546Z,2.10
2019-03-09T19:42:39.262Z,2.33
2019-03-09T19:45:10.647Z,2.03
2019-03-09T19:47:39.075Z,2.23
2019-03-09T19:50:12.762Z,2.10
2019-03-09T19:52:41.288Z,2.17
2019-03-09T19:55:10.247Z,2.10
2019-03-09T19:57:38.738Z,2.37
2019-03-09T20:00:15.754Z,2.57
2019-03-09T20:02:44.191Z,2.23
2019-03-09T20:05:13.047Z,4.23
2019-03-09T20:07:41.553Z,3.20
2019-03-09T20:10:15.495Z,3.20
2019-03-09T20:12:44.323Z,3.73
2019-03-09T20:15:17.662Z,3.40
2019-03-09T20:17:46.131Z,2.67
2019-03-09T20:20:18.795Z,3.77
2019-03-09T20:22:47.486Z,3.07
2019-03-09T20:25:16.219Z,2.60
2019-03-09T20:27:44.646Z,2.90
2019-03-09T20:30:18.988Z,2.80
2019-03-09T20:32:47.425Z,4.30
2019-03-09T20:35:16.199Z,4.30
2019-03-09T20:37:45.544Z,3.20
2019-03-09T20:40:15.764Z,3.00
2019-03-09T20:42:44.282Z,2.83
2019-03-09T20:45:20.908Z,3.60
2019-03-09T20:47:49.435Z,3.00
2019-03-09T20:50:18.913Z,2.57
2019-03-09T20:52:47.632Z,3.93
2019-03-09T20:55:16.387Z,3.20
2019-03-09T20:57:45.143Z,4.70
2019-03-09T21:00:18.023Z,3.90
2019-03-09T21:02:46.515Z,3.20
2019-03-09T21:05:14.931Z,3.00
2019-03-09T21:07:43.371Z,2.97
2019-03-09T21:10:16.711Z,2.90
2019-03-09T21:12:59.956Z,2.97
2019-03-09T21:15:28.450Z,2.03
2019-03-09T21:17:57.151Z,2.53
2019-03-09T21:20:25.673Z,2.47
2019-03-09T21:22:54.164Z,1.97
2019-03-09T21:25:22.586Z,2.40
2019-03-09T21:27:51.035Z,2.17
2019-03-09T21:30:19.514Z,2.40
2019-03-09T21:32:48.227Z,2.47
2019-03-09T21:35:17.067Z,2.40
2019-03-09T21:37:45.583Z,2.93
2019-03-09T21:40:14.338Z,2.07
2019-03-09T21:42:42.783Z,2.07
2019-03-09T21:45:13.718Z,2.10
2019-03-09T21:47:42.167Z,2.13
2019-03-09T21:50:13.251Z,1.67
2019-03-09T21:52:41.694Z,2.20
2019-03-09T21:55:12.941Z,1.83
2019-03-09T21:57:41.463Z,2.03
2019-03-09T22:00:20.020Z,2.03
2019-03-09T22:02:50.167Z,2.87
2019-03-09T22:05:18.875Z,1.93
2019-03-09T22:07:47.571Z,1.83
2019-03-09T22:10:16.003Z,1.80
2019-03-09T22:12:44.469Z,1.67
2019-03-09T22:15:15.392Z,1.50
2019-03-09T22:17:43.871Z,1.80
2019-03-09T22:20:13.280Z,1.93
2019-03-09T22:22:42.050Z,2.07
2019-03-09T22:25:11.670Z,1.97
2019-03-09T22:27:40.268Z,1.90
2019-03-09T22:30:18.838Z,2.00
2019-03-09T22:32:47.628Z,1.60
2019-03-09T22:35:16.119Z,1.47
2019-03-09T22:37:44.609Z,1.97
2019-03-09T22:40:15.182Z,1.70
2019-03-09T22:42:43.691Z,1.50
2019-03-09T22:45:14.479Z,2.13
2019-03-09T22:47:43.340Z,2.37
2019-03-09T22:50:20.577Z,1.63
2019-03-09T22:52:49.014Z,1.53
2019-03-09T22:55:17.432Z,2.10
2019-03-09T22:57:45.950Z,2.80
2019-03-09T23:00:19.807Z,1.70
2019-03-09T23:02:48.255Z,2.40
2019-03-09T23:05:16.821Z,1.63
2019-03-09T23:07:45.260Z,1.73
2019-03-09T23:10:15.816Z,1.73
2019-03-09T23:12:44.250Z,2.07
2019-03-09T23:15:14.818Z,2.60
2019-03-09T23:17:43.330Z,1.63
2019-03-09T23:20:13.502Z,1.70
2019-03-09T23:22:41.953Z,2.43
2019-03-09T23:25:11.094Z,2.30
2019-03-09T23:27:39.614Z,2.00
2019-03-09T23:30:16.592Z,2.43
2019-03-09T23:32:45.216Z,2.20
2019-03-09T23:35:13.995Z,1.70
2019-03-09T23:37:42.626Z,2.43
2019-03-09T23:40:13.751Z,1.57
2019-03-09T23:42:42.191Z,2.40
2019-03-09T23:45:16.206Z,2.20
2019-03-09T23:47:44.879Z,2.40
2019-03-09T23:50:15.235Z,1.90
2019-03-09T23:52:43.910Z,1.83
2019-03-09T23:55:21.292Z,1.80
2019-03-09T23:57:43.359Z,2.50
